Historyczne dane pomiarowe

Dodano dane terminowe – wersja testowa.

Dane z okresu 1951-2019

Wersja bazy: 1.34 [2019-03-16, lista zmian], aktualizacja planowana na 2019-04-15

Dane meteo z obszaru Polski uzyskane na podstawie danych udostępnionych przez Instytut Meteorologii i Gospodarki Wodnej – Państwowy Instytut Badawczy.

 

Wybierz Datę:    

       

TemperaturaWilgotnośćWiatrCiśnienieOpadyŚniegCzas trwania zjawisk
 Stacja t tx tn tng RH VA  wxwx mslp ppp RRR   cm mm wxwxwxwxwxwxwx
1994-09-11 9.6 19.6 1.5- 80.8- 5.7 2.0---- 0.0------------
1994-09-12 13.0 21.9 5.0- 81.3- 4.0 1.0---- 0.0------------
1994-09-13 15.0 23.8 6.8- 85.8- 5.0 1.0---- 0.5------------
1994-09-14 17.9 25.3 9.4- 71.8- 5.7 3.7---- 1.2------------
1994-09-15 16.9 23.3 12.6- 60.3- 7.0 4.7---- 2.3------------
1994-09-16 12.5 17.8 3.9- 68.8- 3.3 1.7---- 0.0------------
1994-09-17 9.2 12.9 5.8- 94.8- 8.0 0.3---- 9.9------------
1994-09-18 7.2 10.9 1.4- 89.8- 4.7 0.3---- 0.0------------
1994-09-19 8.3 14.0 0.2- 87.8- 7.3 0.3---- 2.2------------
1994-09-20 9.7 10.4 8.3- 97.0- 8.0 0.0---- 2.5------------
1994-09-21 9.7 10.4 7.9- 98.5- 8.0 0.3---- 6.2------------
1994-09-22 8.6 16.8 1.4- 94.0- 4.7 0.7---- 0.0------------
1994-09-23 11.5 17.8 7.5- 82.5- 3.0 0.0---- 0.0------------
1994-09-24 9.5 21.4 1.1- 86.0- 0.3 0.3---- 0.0------------
1994-09-25 12.8 23.2 4.8- 87.8- 3.7 0.7---- 0.0------------
1994-09-26 13.9 20.7 8.4- 93.5- 5.3 0.7---- 0.0------------
1994-09-27 12.5 17.8 9.8- 96.5- 8.0 0.7---- 4.1------------
1994-09-28 8.6 15.8 1.9- 86.5- 7.3 0.7---- 0.0------------
1994-09-29 7.7 17.8 0.2- 86.3- 1.7 1.3---- 0.0------------
1994-09-30 10.7 18.8 2.4- 88.8- 4.3 0.3---- 0.0------------
1994-10-01 10.2 19.0 1.8- 88.0- 7.7 1.3---- 0.0------------
1994-10-02 11.2 15.8 6.2- 88.3- 7.7 0.3---- 0.9------------
1994-10-03 10.9 16.4 4.8- 94.8- 8.0 0.3---- 1.6------------
1994-10-04 6.4 12.5 1.0- 90.3- 8.0 0.3---- 6.2------------
1994-10-05 2.2 7.5 -1.5- 83.3- 7.0 1.0---- 0.2------------
1994-10-06 -0.3 2.5 -4.3- 91.3- 7.0 0.3---- 1.6------------
1994-10-07 0.5 1.3 -1.0- 91.8- 7.7 0.7---- 9.8------------
1994-10-08 0.8 6.1 -3.1- 90.3- 5.7 0.3---- 1.8-- 12---------
1994-10-09 1.2 1.9 -1.4- 95.5- 7.3 0.0---- 7.6------------
1994-10-10 -1.2 7.3 -8.3- 86.0- 2.3 1.0---- 0.0------------
169.0 ms

 

Źródłem pochodzenia danych jest Instytut Meteorologii i Gospodarki Wodnej – Państwowy Instytut Badawczy. Dane Instytutu Meteorologii i Gospodarki Wodnej – Państwowego Instytutu Badawczego zostały przetworzone.

Dane źródłowe można odnaleźć na stronie https://dane.imgw.pl